Palchem 1 — 9HA2097 — position and weather

sailwx.info

Track history (hours):
 
Tides and Currents Weather Stations Pressure Air Temp Water Temp Dewpoint Dewpoint Depression Visibility Wind Speed Wind Dir Waves Ship Positions

Palchem 1

Last reported at 2015-Jul-24 04:33 UTC. Time now 2015-Aug-01 22:11 UTC.
Position N 02°58' E 100°52'.
Warning: this ship's position is 8 days out of date.

Length 143 m; draft 8.8 m.

Type: Tanker. MMSI: 249955000.

Date/timePositionNaut miles runAvg speedWind from/ knotsBaromVisibWave heightAir tempDewpointWater temp
2015-Jul-24 04:33N 02°58' E 100°52'1211.8
2015-Jul-24 03:33N 02°50' E 101°00'2311.5
2015-Jul-24 01:33N 02°39' E 101°21'3812.6
2015-Jul-23 22:33N 02°17' E 101°51'12712.7
2015-Jul-23 12:32N 01°11' E 103°40'1110.9
2015-Jul-23 11:33N 01°12' E 103°50'1211.9
2015-Jul-23 10:33N 01°16' E 104°02'6 5.9
2015-Jul-23 09:33N 01°22' E 104°03'8 0.2
2015-Jul-21 22:10N 01°25' E 103°56'6 9.6
2015-Jul-21 21:33N 01°23' E 104°01'7 3.2
2015-Jul-21 19:13N 01°19' E 104°08'0 0.0
2015-Jul-21 17:25N 01°19' E 104°08'0 0.0
2015-Jul-21 16:22N 01°19' E 104°08'0 0.0
2015-Jul-21 15:25N 01°19' E 104°08'0 0.0
2015-Jul-21 14:31N 01°19' E 104°08'0 0.0
2015-Jul-21 12:33N 01°19' E 104°08'0 0.0
2015-Jul-21 11:25N 01°19' E 104°08'0 0.0
2015-Jul-21 10:08N 01°19' E 104°08'0 0.0
2015-Jul-21 07:25N 01°19' E 104°08'0 0.0
2015-Jul-20 19:21N 01°19' E 104°08'0 0.0
2015-Jul-20 18:17N 01°19' E 104°08'0 0.0
2015-Jul-20 16:31N 01°19' E 104°08'0 0.0
2015-Jul-20 15:07N 01°19' E 104°08'0 0.0
2015-Jul-20 14:08N 01°19' E 104°08'0 0.0
2015-Jul-20 11:29N 01°19' E 104°08'0 0.0
2015-Jul-20 08:27N 01°19' E 104°08'0 0.0
2015-Jul-20 07:29N 01°19' E 104°08'0 0.0
2015-Jul-20 06:31N 01°19' E 104°08'0 0.0
2015-Jul-20 04:28N 01°19' E 104°08'0 0.0
2015-Jul-19 18:05N 01°19' E 104°08'0 0.0
2015-Jul-19 17:33N 01°19' E 104°08'0 0.0
2015-Jul-19 16:33N 01°19' E 104°08'0 0.0
2015-Jul-19 15:33N 01°19' E 104°08'0 0.0
2015-Jul-19 14:33N 01°19' E 104°08'0 0.0
2015-Jul-19 13:33N 01°19' E 104°08'0 0.0
2015-Jul-19 12:33N 01°19' E 104°08'0 0.0
2015-Jul-19 11:33N 01°19' E 104°08'1 1.3
2015-Jul-19 10:33N 01°18' E 104°08'7 7.3
2015-Jul-19 09:33N 01°15' E 104°01'1211.3
2015-Jul-19 08:30N 01°12' E 103°50'3 3.1
2015-Jul-19 07:31N 01°14' E 103°48'0 0.0
2015-Jul-19 06:33N 01°14' E 103°48'0 0.0
2015-Jul-19 05:32N 01°14' E 103°48'0 0.0
2015-Jul-19 04:32N 01°14' E 103°48'0 0.0
2015-Jul-19 00:24N 01°14' E 103°48'0 0.0
2015-Jul-18 23:29N 01°14' E 103°48'0 0.0
2015-Jul-18 22:31N 01°14' E 103°48'0 0.0
2015-Jul-18 21:29N 01°14' E 103°48'0 0.0
2015-Jul-18 20:31N 01°14' E 103°48'0 0.0
2015-Jul-18 19:28N 01°14' E 103°48'0 0.1
2015-Jul-18 18:33N 01°14' E 103°48'4 4.3
2015-Jul-18 17:33N 01°15' E 103°44'14710.5
2015-Jul-18 03:33N 02°26' E 101°36'2412.2
2015-Jul-18 01:33N 02°40' E 101°15'5012.4
2015-Jul-17 21:33N 03°10' E 100°36'  
Track history (hours):
 
Tides and Currents Weather Stations Pressure Air Temp Water Temp Dewpoint Dewpoint Depression Visibility Wind Speed Wind Dir Waves Ship Positions

Palchem 1

Last reported at 2015-Jul-24 04:33 UTC. Time now 2015-Aug-01 22:11 UTC.
Position N 02°58' E 100°52'.
Warning: this ship's position is 8 days out of date.

Length 143 m; draft 8.8 m.

Type: Tanker. MMSI: 249955000.

Date/timePositionNaut miles runAvg speedWind from/ knotsBaromVisibWave heightAir tempDewpointWater temp
2015-Jul-24 04:33N 02°58' E 100°52'1211.8
2015-Jul-24 03:33N 02°50' E 101°00'2311.5
2015-Jul-24 01:33N 02°39' E 101°21'3812.6
2015-Jul-23 22:33N 02°17' E 101°51'12712.7
2015-Jul-23 12:32N 01°11' E 103°40'1110.9
2015-Jul-23 11:33N 01°12' E 103°50'1211.9
2015-Jul-23 10:33N 01°16' E 104°02'6 5.9
2015-Jul-23 09:33N 01°22' E 104°03'8 0.2
2015-Jul-21 22:10N 01°25' E 103°56'6 9.6
2015-Jul-21 21:33N 01°23' E 104°01'7 3.2
2015-Jul-21 19:13N 01°19' E 104°08'0 0.0
2015-Jul-21 17:25N 01°19' E 104°08'0 0.0
2015-Jul-21 16:22N 01°19' E 104°08'0 0.0
2015-Jul-21 15:25N 01°19' E 104°08'0 0.0
2015-Jul-21 14:31N 01°19' E 104°08'0 0.0
2015-Jul-21 12:33N 01°19' E 104°08'0 0.0
2015-Jul-21 11:25N 01°19' E 104°08'0 0.0
2015-Jul-21 10:08N 01°19' E 104°08'0 0.0
2015-Jul-21 07:25N 01°19' E 104°08'0 0.0
2015-Jul-20 19:21N 01°19' E 104°08'0 0.0
2015-Jul-20 18:17N 01°19' E 104°08'0 0.0
2015-Jul-20 16:31N 01°19' E 104°08'0 0.0
2015-Jul-20 15:07N 01°19' E 104°08'0 0.0
2015-Jul-20 14:08N 01°19' E 104°08'0 0.0
2015-Jul-20 11:29N 01°19' E 104°08'0 0.0
2015-Jul-20 08:27N 01°19' E 104°08'0 0.0
2015-Jul-20 07:29N 01°19' E 104°08'0 0.0
2015-Jul-20 06:31N 01°19' E 104°08'0 0.0
2015-Jul-20 04:28N 01°19' E 104°08'0 0.0
2015-Jul-19 18:05N 01°19' E 104°08'0 0.0
2015-Jul-19 17:33N 01°19' E 104°08'0 0.0
2015-Jul-19 16:33N 01°19' E 104°08'0 0.0
2015-Jul-19 15:33N 01°19' E 104°08'0 0.0
2015-Jul-19 14:33N 01°19' E 104°08'0 0.0
2015-Jul-19 13:33N 01°19' E 104°08'0 0.0
2015-Jul-19 12:33N 01°19' E 104°08'0 0.0
2015-Jul-19 11:33N 01°19' E 104°08'1 1.3
2015-Jul-19 10:33N 01°18' E 104°08'7 7.3
2015-Jul-19 09:33N 01°15' E 104°01'1211.3
2015-Jul-19 08:30N 01°12' E 103°50'3 3.1
2015-Jul-19 07:31N 01°14' E 103°48'0 0.0
2015-Jul-19 06:33N 01°14' E 103°48'0 0.0
2015-Jul-19 05:32N 01°14' E 103°48'0 0.0
2015-Jul-19 04:32N 01°14' E 103°48'0 0.0
2015-Jul-19 00:24N 01°14' E 103°48'0 0.0
2015-Jul-18 23:29N 01°14' E 103°48'0 0.0
2015-Jul-18 22:31N 01°14' E 103°48'0 0.0
2015-Jul-18 21:29N 01°14' E 103°48'0 0.0
2015-Jul-18 20:31N 01°14' E 103°48'0 0.0
2015-Jul-18 19:28N 01°14' E 103°48'0 0.1
2015-Jul-18 18:33N 01°14' E 103°48'4 4.3
2015-Jul-18 17:33N 01°15' E 103°44'14710.5
2015-Jul-18 03:33N 02°26' E 101°36'2412.2
2015-Jul-18 01:33N 02°40' E 101°15'5012.4
2015-Jul-17 21:33N 03°10' E 100°36'  

Dump ship's entire track history